Time;durP1;ratioP1;P1;durP2;ratioP2;P2;SDS_P1;SDS_P2;PMS_P1;PMS_P2;Temp;Humidity;BMP_temperature;BMP_pressure;BME280_temperature;BME280_humidity;BME280_pressure;Samples;Min_cycle;Max_cycle;Signal;HPM_P1;HPM_P2
2022/05/29 00:02:13;;;;;;;5.90;1.50;;;;;;;9.59;94.24;101708.53;4993584;28;20497;-60
2022/05/29 00:04:41;;;;;;;5.25;1.67;;;;;;;9.52;94.70;101707.13;4994139;28;20502;-59
2022/05/29 00:07:14;;;;;;;6.10;1.45;;;;;;;9.53;94.99;101708.81;4993462;28;20542;-59
2022/05/29 00:09:44;;;;;;;5.18;1.45;;;;;;;9.51;95.28;101716.78;4974222;28;20554;-59
2022/05/29 00:12:13;;;;;;;7.18;1.77;;;;;;;9.52;95.81;101705.34;4989072;28;20053;-60
2022/05/29 00:14:42;;;;;;;4.63;1.73;;;;;;;9.49;96.51;101700.25;4993465;28;20108;-60
2022/05/29 00:17:11;;;;;;;7.28;1.90;;;;;;;9.46;96.76;101695.13;4993664;28;20055;-59
2022/05/29 00:19:39;;;;;;;6.60;1.77;;;;;;;9.45;96.74;101698.69;4993404;28;20124;-59
2022/05/29 00:22:11;;;;;;;7.57;1.65;;;;;;;9.49;97.74;101692.38;4993551;28;20046;-59
2022/05/29 00:24:40;;;;;;;6.53;1.90;;;;;;;9.41;97.78;101697.13;4993710;28;20489;-60
2022/05/29 00:27:11;;;;;;;5.75;2.17;;;;;;;9.37;98.93;101700.81;4993209;28;20054;-60
2022/05/29 00:29:39;;;;;;;5.95;1.95;;;;;;;9.35;99.65;101695.63;4993051;28;20058;-59
2022/05/29 00:32:07;;;;;;;6.10;1.90;;;;;;;9.42;99.28;101685.69;4989856;28;20129;-56
2022/05/29 00:34:37;;;;;;;11.68;1.85;;;;;;;9.46;99.28;101685.47;4990902;28;20054;-55
2022/05/29 00:37:07;;;;;;;11.15;2.15;;;;;;;9.44;99.69;101683.84;4989869;28;20058;-53
2022/05/29 00:39:35;;;;;;;6.78;1.60;;;;;;;9.43;100.00;101684.75;4988587;28;20065;-56
2022/05/29 00:42:06;;;;;;;8.70;2.00;;;;;;;9.55;100.00;101686.81;4992248;28;20540;-56
2022/05/29 00:44:34;;;;;;;7.60;1.83;;;;;;;9.63;99.77;101686.47;4992384;28;20096;-56
2022/05/29 00:47:12;;;;;;;8.40;1.70;;;;;;;9.62;100.00;101680.34;4992003;28;20053;-54
2022/05/29 00:49:43;;;;;;;6.90;1.88;;;;;;;9.62;100.00;101682.13;4992542;28;20108;-55
2022/05/29 00:52:16;;;;;;;4.90;1.60;;;;;;;9.59;100.00;101683.13;4987537;28;20081;-54
2022/05/29 00:54:53;;;;;;;5.50;1.90;;;;;;;9.47;100.00;101681.06;4988725;28;20046;-54
2022/05/29 00:57:28;;;;;;;8.63;1.80;;;;;;;9.52;100.00;101668.59;4992138;28;20048;-51
2022/05/29 01:00:00;;;;;;;13.48;2.50;;;;;;;9.60;100.00;101666.44;4992181;28;20050;-50
2022/05/29 01:02:28;;;;;;;8.23;2.00;;;;;;;9.60;100.00;101671.69;4991945;28;20065;-56
2022/05/29 01:04:57;;;;;;;8.43;2.20;;;;;;;9.61;100.00;101675.16;4992445;28;20551;-50
2022/05/29 01:07:28;;;;;;;6.88;1.80;;;;;;;9.59;100.00;101669.16;4991961;28;20050;-52
2022/05/29 01:09:56;;;;;;;7.10;2.05;;;;;;;9.67;100.00;101669.63;4992120;28;20058;-52
2022/05/29 01:12:38;;;;;;;7.70;2.00;;;;;;;9.76;100.00;101673.56;4990245;28;20092;-51
2022/05/29 01:15:16;;;;;;;6.73;1.90;;;;;;;9.85;100.00;101670.50;4992135;28;20352;-52
2022/05/29 01:17:53;;;;;;;9.43;2.38;;;;;;;9.85;100.00;101667.03;4991901;28;20054;-54
2022/05/29 01:20:35;;;;;;;9.88;2.28;;;;;;;9.75;100.00;101662.22;4991976;28;20069;-49
2022/05/29 01:23:42;;;;;;;10.13;2.08;;;;;;;9.79;100.00;101652.44;4991811;28;20390;-52
2022/05/29 01:26:57;;;;;;;7.90;1.90;;;;;;;9.79;100.00;101648.00;4988429;28;20054;-48
2022/05/29 01:29:37;;;;;;;10.45;2.08;;;;;;;9.80;100.00;101646.22;4975223;28;20121;-52
2022/05/29 01:32:11;;;;;;;9.95;2.20;;;;;;;9.79;100.00;101655.06;4978034;28;20050;-52
2022/05/29 01:34:45;;;;;;;9.15;2.00;;;;;;;9.84;100.00;101649.56;4992374;28;20490;-54
2022/05/29 01:37:20;;;;;;;7.50;2.03;;;;;;;9.90;100.00;101651.91;4993456;28;20060;-53
2022/05/29 01:39:59;;;;;;;7.93;2.28;;;;;;;9.90;100.00;101652.75;4995409;28;20058;-52
2022/05/29 01:42:37;;;;;;;8.05;2.78;;;;;;;10.04;100.00;101651.22;4995260;28;20081;-52
2022/05/29 01:45:14;;;;;;;10.10;2.28;;;;;;;9.95;100.00;101640.22;4995380;28;20039;-50
2022/05/29 01:47:47;;;;;;;8.45;2.03;;;;;;;10.02;100.00;101642.53;4995420;28;20053;-52
2022/05/29 01:50:23;;;;;;;7.90;2.47;;;;;;;10.04;100.00;101638.06;4995369;28;20104;-52
2022/05/29 01:52:55;;;;;;;6.32;2.10;;;;;;;10.01;100.00;101631.19;4994627;28;20058;-50
2022/05/29 01:55:27;;;;;;;8.95;2.25;;;;;;;9.98;100.00;101619.03;4991954;28;20050;-51
2022/05/29 01:58:02;;;;;;;8.50;2.20;;;;;;;10.03;100.00;101610.09;4992630;28;20046;-53
2022/05/29 02:00:32;;;;;;;16.25;2.65;;;;;;;10.03;100.00;101624.06;4992782;28;20482;-54
2022/05/29 02:03:06;;;;;;;8.60;2.20;;;;;;;10.01;100.00;101623.31;4991294;28;20054;-53
2022/05/29 02:05:40;;;;;;;11.25;2.58;;;;;;;9.96;100.00;101617.41;4993716;28;20137;-52
2022/05/29 02:08:15;;;;;;;8.75;2.70;;;;;;;9.84;100.00;101616.25;4995180;28;20497;-54
2022/05/29 02:10:47;;;;;;;9.23;2.85;;;;;;;9.85;100.00;101615.31;4995296;28;20075;-52
2022/05/29 02:13:24;;;;;;;10.02;2.90;;;;;;;9.84;100.00;101613.63;4993348;28;20046;-52
2022/05/29 02:15:58;;;;;;;11.10;3.35;;;;;;;9.86;100.00;101609.16;4993132;28;20055;-55
2022/05/29 02:18:34;;;;;;;9.48;3.00;;;;;;;9.85;100.00;101611.88;4994259;28;20050;-52
2022/05/29 02:21:07;;;;;;;10.30;2.60;;;;;;;9.90;100.00;101615.13;4994702;28;20057;-52
2022/05/29 02:23:44;;;;;;;12.80;3.10;;;;;;;9.77;100.00;101614.84;4994864;28;20544;-59
2022/05/29 02:26:18;;;;;;;10.45;2.80;;;;;;;9.77;100.00;101605.19;4994066;28;20061;-51
2022/05/29 02:28:51;;;;;;;10.55;2.72;;;;;;;9.79;100.00;101605.16;4988951;28;20493;-52
2022/05/29 02:31:34;;;;;;;10.88;2.80;;;;;;;9.75;100.00;101607.06;4992790;28;20049;-53
2022/05/29 02:34:19;;;;;;;11.95;3.08;;;;;;;9.72;100.00;101606.34;4994460;28;20050;-53
2022/05/29 02:36:53;;;;;;;9.07;3.03;;;;;;;9.63;100.00;101594.53;4994337;28;20050;-53
2022/05/29 02:39:37;;;;;;;8.90;3.13;;;;;;;9.51;100.00;101601.22;4990942;28;20062;-51
2022/05/29 02:42:19;;;;;;;9.98;2.58;;;;;;;9.47;100.00;101600.53;4990417;28;20059;-54
2022/05/29 02:44:57;;;;;;;6.97;2.43;;;;;;;9.60;100.00;101600.78;4993306;28;20129;-52
2022/05/29 02:47:34;;;;;;;9.32;2.83;;;;;;;9.47;100.00;101586.53;4994420;28;20998;-53
2022/05/29 02:50:21;;;;;;;9.13;2.70;;;;;;;9.53;100.00;101591.50;4994131;28;20473;-58
2022/05/29 02:52:53;;;;;;;11.25;2.67;;;;;;;9.57;100.00;101589.56;4994427;28;20081;-53
2022/05/29 02:55:22;;;;;;;11.38;2.70;;;;;;;9.57;100.00;101586.94;4993451;28;20556;-52
2022/05/29 02:57:51;;;;;;;8.55;2.78;;;;;;;9.50;100.00;101583.75;4990758;28;20069;-53
2022/05/29 03:00:21;;;;;;;7.78;2.42;;;;;;;9.46;100.00;101575.22;4989341;28;20053;-51
2022/05/29 03:03:07;;;;;;;6.05;2.03;;;;;;;9.41;100.00;101569.31;4992867;28;20084;-59
2022/05/29 03:05:45;;;;;;;9.00;2.08;;;;;;;9.47;100.00;101569.03;4994228;28;20039;-59
2022/05/29 03:08:39;;;;;;;8.00;1.98;;;;;;;9.39;100.00;101567.69;4993304;28;20132;-53
2022/05/29 03:11:10;;;;;;;;;;;;;;;9.40;100.00;101567.63;4971813;28;20494;-53
2022/05/29 03:13:49;;;;;;;6.88;1.90;;;;;;;9.29;100.00;101564.66;4979189;28;19959;-55
2022/05/29 03:16:30;;;;;;;7.13;2.50;;;;;;;9.34;100.00;101569.69;4977326;28;20057;-53
2022/05/29 03:19:06;;;;;;;7.05;2.05;;;;;;;9.33;100.00;101566.22;4992668;28;20371;-52
2022/05/29 03:21:44;;;;;;;8.32;2.03;;;;;;;9.36;100.00;101568.69;4993788;28;20061;-51
2022/05/29 03:24:20;;;;;;;7.03;1.90;;;;;;;9.41;100.00;101565.84;4990269;28;20054;-52
2022/05/29 03:26:53;;;;;;;6.50;1.95;;;;;;;9.43;100.00;101575.34;4990712;28;20046;-52
2022/05/29 03:29:28;;;;;;;6.45;1.70;;;;;;;9.43;100.00;101567.47;4992158;28;20061;-50
2022/05/29 03:31:58;;;;;;;6.57;2.15;;;;;;;9.43;100.00;101575.34;4990387;28;20044;-53
2022/05/29 03:34:27;;;;;;;8.05;1.95;;;;;;;9.42;100.00;101570.16;4992558;28;20050;-51
2022/05/29 03:36:55;;;;;;;7.25;1.98;;;;;;;9.40;100.00;101565.00;4992998;28;20049;-52
2022/05/29 03:39:23;;;;;;;4.78;1.63;;;;;;;9.44;100.00;101565.69;4989683;28;20052;-55
2022/05/29 03:41:54;;;;;;;10.55;2.47;;;;;;;9.51;100.00;101563.63;4990854;28;20057;-54
2022/05/29 03:44:24;;;;;;;7.10;2.47;;;;;;;9.39;100.00;101562.44;4993186;28;20482;-51
2022/05/29 03:46:52;;;;;;;5.38;1.85;;;;;;;9.47;100.00;101557.66;4993352;28;20042;-54
2022/05/29 03:49:23;;;;;;;8.18;2.00;;;;;;;9.59;100.00;101554.44;4993155;28;20073;-59
2022/05/29 03:51:52;;;;;;;7.20;2.25;;;;;;;9.68;100.00;101547.88;4990051;28;20053;-52
2022/05/29 03:54:21;;;;;;;6.50;2.05;;;;;;;9.66;100.00;101554.13;4990968;28;20046;-60
2022/05/29 03:56:49;;;;;;;8.07;2.22;;;;;;;9.70;100.00;101548.66;4991653;28;20387;-52
2022/05/29 03:59:17;;;;;;;6.10;1.85;;;;;;;9.53;100.00;101554.75;4988269;28;20042;-59
2022/05/29 04:01:45;;;;;;;8.85;2.28;;;;;;;9.55;100.00;101552.03;4993448;28;20501;-59
2022/05/29 04:04:14;;;;;;;7.22;2.00;;;;;;;9.52;100.00;101542.53;4993725;28;20516;-59
2022/05/29 04:06:42;;;;;;;7.82;1.90;;;;;;;9.52;100.00;101550.41;4993373;28;20050;-59
2022/05/29 04:12:07;;;;;;;7.65;1.90;;;;;;;9.75;100.00;101544.00;4970723;28;20051;-54
2022/05/29 04:14:37;;;;;;;8.23;2.05;;;;;;;9.74;100.00;101536.22;4970657;28;20101;-59
2022/05/29 04:17:06;;;;;;;6.93;1.83;;;;;;;9.81;100.00;101543.69;4972724;28;20455;-55
2022/05/29 04:19:34;;;;;;;8.88;1.92;;;;;;;9.89;100.00;101545.09;4974511;28;20129;-59
2022/05/29 04:22:07;;;;;;;8.27;2.00;;;;;;;9.82;100.00;101539.31;4991292;28;20052;-52
2022/05/29 04:24:37;;;;;;;5.55;1.75;;;;;;;9.71;100.00;101536.38;4988732;28;20506;-51
2022/05/29 04:27:09;;;;;;;7.07;1.92;;;;;;;9.82;100.00;101534.03;4989948;28;20045;-58
2022/05/29 04:29:37;;;;;;;7.95;2.10;;;;;;;9.90;100.00;101547.66;4992416;28;20057;-52
2022/05/29 04:34:54;;;;;;;8.82;1.92;;;;;;;9.88;100.00;101538.97;4991116;28;20124;-52
2022/05/29 04:37:22;;;;;;;8.10;2.40;;;;;;;9.93;100.00;101544.00;4992393;28;20046;-58
2022/05/29 04:39:51;;;;;;;9.25;2.45;;;;;;;9.95;100.00;101536.88;4992328;28;20066;-53
2022/05/29 04:42:19;;;;;;;7.63;2.30;;;;;;;9.97;100.00;101542.94;4992750;28;20058;-58
2022/05/29 04:44:48;;;;;;;10.18;2.30;;;;;;;9.78;100.00;101537.75;4992406;28;20050;-58
2022/05/29 04:47:16;;;;;;;7.55;2.22;;;;;;;9.77;100.00;101543.94;4991807;28;20049;-59
2022/05/29 04:49:44;;;;;;;8.07;2.25;;;;;;;9.68;100.00;101539.13;4992403;28;20046;-55
2022/05/29 04:52:12;;;;;;;5.65;1.80;;;;;;;9.80;100.00;101535.88;4992719;28;20533;-58
2022/05/29 04:54:41;;;;;;;5.28;1.83;;;;;;;9.82;100.00;101528.78;4992809;28;20061;-59
2022/05/29 04:57:11;;;;;;;5.82;1.95;;;;;;;9.74;100.00;101525.72;4992537;28;20121;-59
2022/05/29 04:59:40;;;;;;;7.40;1.73;;;;;;;9.90;100.00;101525.78;4992733;28;20046;-55
2022/05/29 05:02:08;;;;;;;7.03;1.92;;;;;;;9.96;100.00;101521.03;4992116;28;20078;-58
2022/05/29 05:04:36;;;;;;;5.88;1.80;;;;;;;9.95;100.00;101529.88;4993825;28;20533;-54
2022/05/29 05:07:04;;;;;;;5.38;2.00;;;;;;;9.89;100.00;101513.56;4993121;28;20129;-53
2022/05/29 05:09:33;;;;;;;3.90;1.88;;;;;;;9.90;100.00;101525.78;4996378;28;20101;-58
2022/05/29 05:12:01;;;;;;;7.22;1.92;;;;;;;9.92;100.00;101526.53;4996392;28;20042;-55
2022/05/29 05:14:31;;;;;;;7.05;2.08;;;;;;;9.82;100.00;101529.63;4996140;28;20125;-53
2022/05/29 05:16:59;;;;;;;8.73;1.90;;;;;;;9.82;100.00;101520.91;4996531;28;20046;-58
2022/05/29 05:19:27;;;;;;;6.72;1.85;;;;;;;9.92;100.00;101523.91;4996247;28;20554;-59
2022/05/29 05:21:55;;;;;;;6.47;1.98;;;;;;;9.95;100.00;101522.00;4995960;28;20046;-58
2022/05/29 05:24:23;;;;;;;7.18;2.08;;;;;;;10.06;100.00;101516.19;4996404;28;20074;-58
2022/05/29 05:26:51;;;;;;;7.53;1.80;;;;;;;10.01;100.00;101522.56;4996069;28;20050;-58
2022/05/29 05:29:19;;;;;;;6.50;1.65;;;;;;;10.13;100.00;101517.53;4996186;28;20116;-59
2022/05/29 05:31:49;;;;;;;8.73;1.88;;;;;;;10.18;100.00;101519.91;4995509;28;20081;-59
2022/05/29 05:34:17;;;;;;;4.93;1.80;;;;;;;10.09;100.00;101517.75;4993009;28;20056;-53
2022/05/29 05:36:45;;;;;;;7.40;2.17;;;;;;;10.18;100.00;101514.66;4993365;28;20553;-53
2022/05/29 05:39:13;;;;;;;5.85;2.38;;;;;;;10.20;100.00;101520.69;4995673;28;20050;-54
2022/05/29 05:41:48;;;;;;;5.10;1.58;;;;;;;10.29;100.00;101520.22;4994375;28;20057;-52
2022/05/29 05:44:17;;;;;;;4.47;1.63;;;;;;;10.24;100.00;101519.59;4995622;28;20058;-54
2022/05/29 05:46:45;;;;;;;6.32;1.88;;;;;;;10.23;100.00;101515.28;4995400;28;20046;-58
2022/05/29 05:49:16;;;;;;;8.18;1.98;;;;;;;10.11;100.00;101516.75;4994167;28;20054;-56
2022/05/29 05:51:44;;;;;;;7.05;1.80;;;;;;;10.19;100.00;101516.38;4992595;28;20527;-54
2022/05/29 05:54:12;;;;;;;5.30;2.20;;;;;;;10.14;100.00;101516.63;4994632;28;20404;-55
2022/05/29 05:56:42;;;;;;;5.57;1.80;;;;;;;10.28;100.00;101521.16;4991287;28;20066;-55
2022/05/29 05:59:11;;;;;;;8.27;2.03;;;;;;;10.30;100.00;101516.63;4990176;28;20502;-54
2022/05/29 06:01:40;;;;;;;6.32;1.90;;;;;;;10.31;100.00;101520.97;4993199;28;20061;-59
2022/05/29 06:04:09;;;;;;;5.63;1.70;;;;;;;10.30;100.00;101519.25;4993325;28;20129;-60
2022/05/29 06:06:39;;;;;;;6.80;1.98;;;;;;;10.36;100.00;101512.03;4994220;28;20516;-60
2022/05/29 06:09:07;;;;;;;7.63;1.70;;;;;;;10.52;100.00;101514.69;4995008;28;20056;-61
2022/05/29 06:11:39;;;;;;;7.60;2.22;;;;;;;10.68;100.00;101518.16;4994724;28;20046;-53
2022/05/29 06:14:08;;;;;;;7.07;1.90;;;;;;;10.73;100.00;101516.16;4991413;28;20046;-55
2022/05/29 06:16:37;;;;;;;6.60;1.77;;;;;;;10.79;100.00;101520.22;4991544;28;20070;-51
2022/05/29 06:19:06;;;;;;;5.55;1.65;;;;;;;10.80;100.00;101522.75;4992122;28;20051;-54
2022/05/29 06:21:35;;;;;;;7.32;2.10;;;;;;;10.99;100.00;101525.22;4993879;28;20048;-53
2022/05/29 06:24:06;;;;;;;6.75;1.92;;;;;;;11.03;100.00;101519.75;4991800;28;20046;-59
2022/05/29 06:26:38;;;;;;;4.75;1.65;;;;;;;11.03;100.00;101519.75;4993531;28;20129;-61
2022/05/29 06:29:06;;;;;;;6.13;1.85;;;;;;;11.02;100.00;101518.94;4990148;28;20121;-55
2022/05/29 06:31:34;;;;;;;4.88;1.75;;;;;;;11.16;100.00;101523.41;4992077;28;20521;-59
2022/05/29 06:34:02;;;;;;;4.82;1.58;;;;;;;11.24;100.00;101520.34;4993532;28;20553;-59
2022/05/29 06:36:31;;;;;;;5.47;1.80;;;;;;;11.22;100.00;101523.06;4994263;28;20035;-55
2022/05/29 06:38:59;;;;;;;4.65;1.58;;;;;;;11.22;100.00;101525.72;4994492;28;20058;-59
2022/05/29 06:41:29;;;;;;;5.65;1.60;;;;;;;11.27;100.00;101525.44;4994618;28;20038;-59
2022/05/29 06:43:57;;;;;;;5.20;1.40;;;;;;;11.43;100.00;101528.88;4994776;28;20066;-59
2022/05/29 06:46:25;;;;;;;5.30;1.50;;;;;;;11.39;100.00;101535.25;4994415;28;20058;-55
2022/05/29 06:48:53;;;;;;;5.50;1.40;;;;;;;11.15;100.00;101532.22;4989695;28;20069;-53
2022/05/29 06:51:23;;;;;;;2.58;1.20;;;;;;;11.16;100.00;101541.84;4991708;28;20566;-52
2022/05/29 06:53:52;;;;;;;5.93;1.50;;;;;;;11.07;100.00;101537.09;4992518;28;20081;-55
2022/05/29 06:56:21;;;;;;;6.03;1.60;;;;;;;11.12;100.00;101542.94;4993706;28;20443;-54
2022/05/29 06:58:51;;;;;;;8.75;1.92;;;;;;;11.04;100.00;101540.72;4994310;28;20074;-54
2022/05/29 07:07:19;;;;;;;6.38;1.50;;;;;;;10.86;100.00;101534.72;4990365;28;20058;-53
2022/05/29 07:09:47;;;;;;;5.30;1.70;;;;;;;10.82;100.00;101522.66;4990429;28;20061;-49
2022/05/29 07:12:19;;;;;;;7.88;2.00;;;;;;;10.90;100.00;101530.97;4993636;28;20057;-53
2022/05/29 07:14:51;;;;;;;3.78;1.55;;;;;;;11.07;100.00;101530.06;4994029;28;20061;-53
2022/05/29 07:17:22;;;;;;;;;;;;;;;11.10;100.00;101518.50;4994182;28;20042;-52
2022/05/29 07:19:50;;;;;;;7.43;1.95;;;;;;;11.07;100.00;101523.91;4993797;28;20381;-53
2022/05/29 07:22:18;;;;;;;6.25;1.55;;;;;;;11.28;100.00;101517.44;4993553;28;20066;-53
2022/05/29 07:24:46;;;;;;;7.50;1.70;;;;;;;11.41;100.00;101529.91;4993635;28;20057;-53
2022/05/29 07:27:14;;;;;;;4.75;1.60;;;;;;;11.47;100.00;101530.38;4992673;28;20050;-52
2022/05/29 07:29:43;;;;;;;5.22;1.63;;;;;;;11.44;100.00;101533.22;4993588;28;20510;-51
2022/05/29 07:32:13;;;;;;;6.07;1.58;;;;;;;11.52;100.00;101524.88;4991945;28;20080;-52
2022/05/29 07:34:43;;;;;;;5.05;1.55;;;;;;;11.65;100.00;101519.72;4993670;28;20043;-53
2022/05/29 07:37:15;;;;;;;3.88;1.38;;;;;;;11.75;100.00;101520.88;4993220;28;20104;-52
2022/05/29 07:39:45;;;;;;;4.05;1.50;;;;;;;11.70;100.00;101519.44;4993270;28;20081;-52
2022/05/29 07:45:00;;;;;;;4.03;1.58;;;;;;;11.93;100.00;101526.84;4987784;28;20509;-52
2022/05/29 07:47:36;;;;;;;6.18;1.30;;;;;;;12.10;100.00;101525.00;4992283;28;20054;-53
2022/05/29 07:50:06;;;;;;;4.18;1.55;;;;;;;12.03;100.00;101521.88;4989768;28;20516;-55
2022/05/29 07:52:34;;;;;;;4.82;1.30;;;;;;;11.92;100.00;101527.78;4991375;28;20477;-55
2022/05/29 07:55:02;;;;;;;4.82;1.35;;;;;;;11.70;100.00;101525.56;4992013;28;20108;-53
2022/05/29 07:57:29;;;;;;;5.32;1.65;;;;;;;11.67;100.00;101523.97;4992621;28;20050;-53
2022/05/29 07:59:58;;;;;;;5.40;1.42;;;;;;;11.46;100.00;101526.06;4993395;28;20493;-52
2022/05/29 08:02:26;;;;;;;6.70;1.52;;;;;;;11.44;100.00;101527.09;4992808;28;20458;-53
2022/05/29 08:04:59;;;;;;;7.53;1.55;;;;;;;11.46;100.00;101523.41;4993092;28;20057;-52
2022/05/29 08:07:27;;;;;;;6.07;1.33;;;;;;;11.54;100.00;101514.25;4987794;28;20197;-55
2022/05/29 08:09:55;;;;;;;4.80;1.48;;;;;;;11.64;100.00;101518.03;4990021;28;20078;-54
2022/05/29 08:12:24;;;;;;;4.15;1.33;;;;;;;11.73;100.00;101509.56;4990291;28;20505;-51
2022/05/29 08:14:56;;;;;;;4.55;1.38;;;;;;;11.92;100.00;101508.50;4967524;28;20050;-54
2022/05/29 08:17:24;;;;;;;4.10;1.25;;;;;;;11.86;100.00;101507.03;4971701;28;20074;-51
2022/05/29 08:19:52;;;;;;;5.07;1.40;;;;;;;12.05;100.00;101511.25;4989715;28;20049;-52
2022/05/29 08:22:22;;;;;;;8.40;1.85;;;;;;;12.13;100.00;101507.22;4991401;28;20048;-52
2022/05/29 08:30:46;;;;;;;6.13;1.60;;;;;;;12.23;100.00;101510.13;4968362;28;20089;-53
2022/05/29 08:33:16;;;;;;;6.70;1.75;;;;;;;12.15;100.00;101504.47;4974682;28;20054;-52
2022/05/29 08:35:47;;;;;;;3.92;1.38;;;;;;;11.97;100.00;101519.59;4990204;28;20059;-58
2022/05/29 08:38:18;;;;;;;4.03;1.30;;;;;;;12.16;100.00;101503.53;4989711;28;20042;-59
2022/05/29 08:40:49;;;;;;;3.95;1.20;;;;;;;12.14;98.06;101508.88;4973748;28;20403;-53
2022/05/29 08:43:26;;;;;;;4.25;1.25;;;;;;;12.27;100.00;101511.63;4984742;28;20058;-51
2022/05/29 08:45:54;;;;;;;6.22;1.52;;;;;;;12.46;100.00;101510.47;4991472;28;20076;-59
2022/05/29 08:48:26;;;;;;;4.63;1.48;;;;;;;12.52;100.00;101510.94;4993139;28;20113;-59
2022/05/29 08:51:05;;;;;;;5.05;1.30;;;;;;;12.62;100.00;101505.94;4995661;28;20552;-60
2022/05/29 08:53:41;;;;;;;5.95;1.60;;;;;;;12.88;100.00;101498.13;4991981;28;20046;-59
2022/05/29 08:56:19;;;;;;;6.22;1.45;;;;;;;13.01;100.00;101491.13;4990725;28;20104;-59
2022/05/29 08:59:03;;;;;;;4.22;1.30;;;;;;;13.04;100.00;101492.72;4991854;28;20054;-60
2022/05/29 09:01:42;;;;;;;7.97;1.60;;;;;;;12.93;97.55;101493.41;4973203;28;20133;-60
2022/05/29 09:04:16;;;;;;;5.22;1.40;;;;;;;13.22;97.74;101493.28;4973743;28;20387;-60
2022/05/29 09:06:48;;;;;;;5.60;1.30;;;;;;;13.33;100.00;101493.47;4973742;28;20062;-62
2022/05/29 09:09:25;;;;;;;6.63;1.48;;;;;;;13.49;94.70;101487.16;4973255;28;20043;-59
2022/05/29 09:11:57;;;;;;;6.38;1.50;;;;;;;13.40;93.88;101490.41;4986520;28;20062;-61
2022/05/29 09:14:30;;;;;;;3.83;1.42;;;;;;;13.40;92.74;101488.63;4992241;28;20058;-61
2022/05/29 09:17:03;;;;;;;4.53;1.45;;;;;;;13.35;91.23;101490.72;4992830;28;20108;-60
2022/05/29 09:19:38;;;;;;;5.07;1.23;;;;;;;13.23;94.28;101491.53;4992273;28;20041;-59
2022/05/29 09:22:17;;;;;;;3.97;1.15;;;;;;;13.23;91.41;101497.63;4992507;28;20125;-59
2022/05/29 09:24:56;;;;;;;5.03;1.60;;;;;;;12.93;90.46;101501.34;4992214;28;20124;-60
2022/05/29 09:27:24;;;;;;;5.55;1.40;;;;;;;12.92;91.78;101490.88;4992285;28;20054;-55
2022/05/29 09:29:53;;;;;;;8.02;1.38;;;;;;;12.76;91.95;101494.53;4987701;28;20046;-60
2022/05/29 09:32:24;;;;;;;12.98;1.73;;;;;;;12.91;92.68;101481.25;4990378;28;20130;-59
2022/05/29 09:35:02;;;;;;;7.50;1.48;;;;;;;12.99;91.68;101485.13;4991001;28;20057;-55
2022/05/29 09:37:51;;;;;;;3.92;1.17;;;;;;;12.92;92.66;101485.59;4992202;28;20104;-55
2022/05/29 09:40:26;;;;;;;6.35;1.20;;;;;;;12.72;93.82;101481.59;4986619;28;20112;-57
2022/05/29 09:42:55;;;;;;;6.57;1.85;;;;;;;12.74;93.34;101477.91;4990147;28;20437;-55
2022/05/29 09:45:30;;;;;;;6.53;1.23;;;;;;;12.85;92.09;101477.22;4991461;28;20070;-55
2022/05/29 09:50:48;;;;;;;6.20;1.40;;;;;;;13.05;93.35;101480.34;4995554;28;20050;-59
2022/05/29 09:53:21;;;;;;;5.97;1.35;;;;;;;13.07;92.87;101486.41;4995820;28;20045;-59
2022/05/29 09:55:55;;;;;;;3.85;1.38;;;;;;;12.95;92.77;101474.84;4995254;28;20054;-59
2022/05/29 09:58:28;;;;;;;5.57;1.23;;;;;;;12.98;91.88;101472.84;4995770;28;20101;-59
2022/05/29 10:01:02;;;;;;;5.47;1.50;;;;;;;13.30;93.31;101471.66;4994938;28;20596;-59
2022/05/29 10:03:39;;;;;;;5.22;1.42;;;;;;;13.47;90.28;101465.28;4994820;28;20042;-59
2022/05/29 10:06:14;;;;;;;7.93;1.70;;;;;;;13.41;88.24;101460.41;4991836;28;20409;-55
2022/05/29 10:08:44;;;;;;;6.43;1.50;;;;;;;13.30;88.62;101459.28;4995338;28;20489;-56
2022/05/29 10:11:21;;;;;;;8.20;1.50;;;;;;;13.43;88.69;101455.84;4990877;28;20053;-56
2022/05/29 10:13:50;;;;;;;8.35;1.60;;;;;;;13.39;89.73;101463.16;4992748;28;20054;-54
2022/05/29 10:16:34;;;;;;;5.43;1.50;;;;;;;13.26;91.20;101457.81;4992658;28;20050;-51
2022/05/29 10:19:02;;;;;;;7.90;1.85;;;;;;;13.45;90.80;101461.91;4990820;28;20132;-52
2022/05/29 10:21:32;;;;;;;2.70;1.23;;;;;;;13.61;94.87;101459.06;4994780;28;20072;-54
2022/05/29 10:24:22;;;;;;;6.35;1.50;;;;;;;13.68;93.03;101453.25;4995283;28;20489;-51
2022/05/29 10:26:54;;;;;;;6.63;1.52;;;;;;;13.78;92.48;101449.97;4994731;28;20383;-52
2022/05/29 10:29:28;;;;;;;10.90;1.63;;;;;;;13.52;91.50;101452.59;4990984;28;20042;-53
2022/05/29 10:31:59;;;;;;;5.63;1.80;;;;;;;13.42;92.78;101455.03;4975503;28;20098;-53
2022/05/29 10:34:30;;;;;;;10.73;1.65;;;;;;;13.29;90.03;101456.75;4985578;28;20038;-52
2022/05/29 10:36:58;;;;;;;6.68;1.48;;;;;;;13.36;93.95;101460.72;4991105;28;20410;-53
2022/05/29 10:39:29;;;;;;;7.97;1.55;;;;;;;13.27;94.03;101464.78;4992841;28;20101;-53
2022/05/29 10:42:05;;;;;;;7.05;1.55;;;;;;;13.15;94.17;101466.44;4994753;28;20077;-51
2022/05/29 10:44:40;;;;;;;5.93;1.63;;;;;;;13.11;94.52;101474.69;4995509;28;20069;-51
2022/05/29 10:47:18;;;;;;;5.15;1.38;;;;;;;12.93;95.48;101471.47;4978826;28;20065;-52
2022/05/29 10:50:02;;;;;;;6.75;1.30;;;;;;;12.85;96.67;101464.88;4977513;28;20047;-53
2022/05/29 10:53:01;;;;;;;5.10;1.30;;;;;;;12.80;95.69;101477.53;4993349;28;20488;-53
2022/05/29 10:55:41;;;;;;;7.18;1.25;;;;;;;12.71;92.89;101467.56;4993482;28;20046;-55
2022/05/29 10:58:32;;;;;;;5.65;1.35;;;;;;;12.69;96.21;101469.44;4993184;28;20050;-53
2022/05/29 11:04:26;;;;;;;7.70;1.08;;;;;;;12.86;93.33;101465.72;4989282;28;20058;-50
2022/05/29 11:07:21;;;;;;;6.65;1.13;;;;;;;12.83;94.22;101455.38;4989218;28;20035;-53
2022/05/29 11:10:04;;;;;;;5.55;1.35;;;;;;;13.02;92.77;101465.59;4970354;28;20050;-54
2022/05/29 11:13:03;;;;;;;7.97;1.52;;;;;;;13.21;93.71;101459.94;4974700;28;20528;-53
2022/05/29 11:15:40;;;;;;;5.55;1.50;;;;;;;13.45;90.74;101461.91;4988273;28;20058;-55
2022/05/29 11:18:33;;;;;;;6.25;1.42;;;;;;;13.46;87.65;101453.88;4994282;28;20054;-54
2022/05/29 11:21:12;;;;;;;5.60;1.00;;;;;;;13.65;89.19;101457.91;4994291;28;20057;-59
2022/05/29 11:24:03;;;;;;;6.57;1.42;;;;;;;13.81;90.51;101449.75;4994246;28;20382;-62
2022/05/29 11:26:49;;;;;;;4.70;1.35;;;;;;;13.91;85.69;101448.16;4975018;28;20051;-60
2022/05/29 11:29:42;;;;;;;6.55;1.40;;;;;;;14.06;83.94;101448.03;4973098;28;20460;-60
2022/05/29 11:32:48;;;;;;;5.30;1.52;;;;;;;14.28;83.63;101447.38;4979470;28;20050;-60
2022/05/29 11:35:31;;;;;;;7.32;1.40;;;;;;;14.52;83.99;101444.78;4993580;28;20097;-55
2022/05/29 11:38:09;;;;;;;;;;;;;;;14.75;84.33;101427.25;4994370;28;20609;-60
2022/05/29 11:40:44;;;;;;;8.35;1.40;;;;;;;14.81;77.30;101441.84;4989977;28;20385;-60
2022/05/29 11:43:22;;;;;;;6.70;1.23;;;;;;;14.89;78.01;101439.47;4984011;28;20046;-60
2022/05/29 11:51:37;;;;;;;;;;;;;;;15.09;72.97;101431.81;4990257;28;20442;-56
2022/05/29 11:54:19;;;;;;;5.05;1.05;;;;;;;15.49;71.79;101427.00;4992136;28;19922;-57
2022/05/29 11:56:53;;;;;;;10.15;1.25;;;;;;;15.59;70.18;101424.47;4991540;28;20058;-60
2022/05/29 11:59:24;;;;;;;6.97;1.25;;;;;;;15.82;71.67;101417.41;4990025;28;20133;-60
2022/05/29 12:02:01;;;;;;;5.68;1.00;;;;;;;16.11;71.58;101411.63;4989910;28;20375;-60
2022/05/29 12:04:36;;;;;;;6.13;1.27;;;;;;;16.28;68.42;101404.09;4990304;28;20077;-55
2022/05/29 12:07:10;;;;;;;7.40;1.67;;;;;;;16.37;67.70;101412.19;4991711;28;20050;-58
2022/05/29 12:09:43;;;;;;;7.10;1.42;;;;;;;16.39;64.94;101404.09;4988897;28;20050;-55
2022/05/29 12:12:16;;;;;;;6.90;1.05;;;;;;;16.40;62.95;101400.47;4991699;28;20122;-61
2022/05/29 12:14:51;;;;;;;5.60;1.08;;;;;;;16.56;62.19;101395.63;4992598;28;20082;-57
2022/05/29 12:17:24;;;;;;;6.20;1.58;;;;;;;16.83;63.88;101396.94;4986130;28;20054;-62
2022/05/29 12:20:01;;;;;;;5.88;1.13;;;;;;;17.23;60.94;101393.66;4992312;28;20050;-61
2022/05/29 12:22:35;;;;;;;5.72;1.52;;;;;;;17.43;61.83;101385.78;4985750;28;20042;-60
2022/05/29 12:25:07;;;;;;;6.20;1.13;;;;;;;17.43;58.30;101379.63;4992201;28;20061;-61